Terminal Aerodrome Forecast
Issued by NWS

Home | Current Version | Previous Version | Text Only | Print | Product List | Glossary On
Versions: 1 2 3 4 5 6 7 8 9 10 11 12 13 14 15 16 17 18
000
FTUS45 KRIW 222334
TAFBPI
TAF
KBPI 222334Z 2300/2324 32011KT P6SM VCSH FEW015 BKN060
     FM230400 VRB06KT P6SM SCT006 SCT050
     FM231700 23007KT P6SM VCSH SCT050
     FM231900 25011KT P6SM VCTS SCT035 BKN050CB=

USA.gov is the U.S. government's official web portal to all federal, state and local government web resources and services.